ETNS

Schleswig Airport

Germany
METAR ETNS 211520Z AUTO 28014KT 7000 // ////// 16/05 Q1021 ///
Observed Flight Rules
Apr-21 @ 15:20 UTC (16 minutes ago)
Wind Visibility
280° at 14 knots 7,001 meters
Temperatures Readings
Current 16°C / 61°F
Dewpoint 5°C / 41°F
Humidity 48%
Altimeter 30.15" Hg
Pressure 1021 hPa
Elevation 25
METAR ETNS 211520Z AUTO 28014KT 7000 // ////// 16/05 Q1021 ///
Observed Flight Rules
Apr-21 @ 15:20 UTC
(16 minutes ago)
Wind Visibility
280° at 14 knots 7,001 meters
Temperature Dewpoint
16°C / 61°F 5°C / 41°F
Humidity Altimeter Pressure
48% 30.15" Hg 1021 hPa